createdAt,value
2018-06-16T00:00:55.610Z,16.48
2018-06-16T00:03:23.853Z,16.65
2018-06-16T00:05:52.027Z,16.97
2018-06-16T00:08:20.188Z,16.85
2018-06-16T00:10:48.394Z,17.25
2018-06-16T00:13:16.577Z,16.30
2018-06-16T00:15:44.743Z,16.07
2018-06-16T00:18:12.901Z,17.45
2018-06-16T00:20:41.068Z,17.32
2018-06-16T00:23:09.229Z,16.82
2018-06-16T00:25:37.417Z,17.10
2018-06-16T00:28:05.570Z,16.15
2018-06-16T00:30:33.751Z,17.52
2018-06-16T00:33:01.906Z,18.00
2018-06-16T00:35:30.078Z,17.17
2018-06-16T00:37:58.241Z,18.12
2018-06-16T00:40:26.401Z,20.72
2018-06-16T00:42:54.580Z,21.20
2018-06-16T00:45:22.758Z,20.57
2018-06-16T00:47:50.904Z,21.20
2018-06-16T00:50:19.082Z,20.48
2018-06-16T00:52:47.254Z,21.80
2018-06-16T00:55:15.431Z,21.75
2018-06-16T00:57:48.202Z,21.80
2018-06-16T01:00:17.482Z,20.32
2018-06-16T01:02:45.937Z,20.37
2018-06-16T01:05:14.125Z,21.77
2018-06-16T01:07:42.276Z,20.62
2018-06-16T01:10:11.312Z,21.42
2018-06-16T01:12:39.757Z,23.25
2018-06-16T01:15:07.909Z,21.07
2018-06-16T01:17:36.082Z,20.52
2018-06-16T01:20:04.645Z,21.23
2018-06-16T01:22:32.813Z,21.17
2018-06-16T01:25:01.101Z,22.30
2018-06-16T01:27:29.618Z,20.62
2018-06-16T01:29:57.889Z,20.95
2018-06-16T01:32:26.085Z,21.17
2018-06-16T01:34:54.301Z,20.48
2018-06-16T01:37:22.467Z,21.85
2018-06-16T01:39:50.620Z,21.42
2018-06-16T01:42:18.801Z,21.65
2018-06-16T01:44:46.961Z,20.82
2018-06-16T01:47:15.126Z,22.90
2018-06-16T01:49:43.286Z,22.00
2018-06-16T01:52:11.461Z,22.55
2018-06-16T01:54:39.620Z,22.32
2018-06-16T01:57:07.782Z,22.17
2018-06-16T01:59:35.950Z,24.02
2018-06-16T02:02:04.122Z,23.15
2018-06-16T02:04:32.273Z,22.73
2018-06-16T02:07:00.443Z,22.15
2018-06-16T02:09:28.590Z,22.85
2018-06-16T02:11:56.785Z,22.42
2018-06-16T02:14:24.942Z,23.50
2018-06-16T02:16:53.099Z,23.05
2018-06-16T02:19:21.253Z,22.65
2018-06-16T02:21:49.419Z,22.70
2018-06-16T02:24:17.576Z,23.00
2018-06-16T02:26:45.729Z,23.30
2018-06-16T02:29:13.896Z,22.52
2018-06-16T02:31:42.037Z,21.68
2018-06-16T02:34:10.216Z,22.50
2018-06-16T02:36:38.386Z,21.25
2018-06-16T02:39:08.055Z,22.62
2018-06-16T02:41:36.246Z,22.17
2018-06-16T02:44:04.402Z,22.42
2018-06-16T02:46:32.569Z,20.97
2018-06-16T02:49:00.750Z,20.97
2018-06-16T02:51:28.890Z,20.65
2018-06-16T02:53:57.059Z,20.65
2018-06-16T02:56:25.214Z,21.42
2018-06-16T02:58:53.385Z,21.15
2018-06-16T03:01:21.552Z,20.62
2018-06-16T03:03:49.703Z,20.35
2018-06-16T03:06:17.868Z,20.92
2018-06-16T03:08:46.055Z,21.10
2018-06-16T03:11:14.211Z,20.30
2018-06-16T03:13:42.381Z,20.72
2018-06-16T03:16:10.545Z,19.25
2018-06-16T03:18:38.694Z,18.67
2018-06-16T03:21:06.949Z,19.92
2018-06-16T03:23:35.127Z,18.90
2018-06-16T03:26:03.298Z,20.37
2018-06-16T03:28:31.459Z,19.48
2018-06-16T03:30:59.621Z,19.42
2018-06-16T03:33:27.809Z,21.17
2018-06-16T03:35:56.053Z,19.73
2018-06-16T03:38:24.298Z,21.90
2018-06-16T03:40:52.445Z,21.33
2018-06-16T03:43:20.605Z,20.12
2018-06-16T03:45:48.775Z,21.15
2018-06-16T03:48:16.937Z,21.07
2018-06-16T03:50:45.102Z,21.42
2018-06-16T03:53:13.313Z,20.88
2018-06-16T03:55:41.486Z,20.68
2018-06-16T03:58:09.642Z,19.95
2018-06-16T04:00:37.793Z,21.15
2018-06-16T04:03:06.127Z,18.23
2018-06-16T04:05:34.308Z,18.90
2018-06-16T04:08:02.444Z,19.32
2018-06-16T04:10:30.600Z,19.95
2018-06-16T04:12:58.756Z,20.23
2018-06-16T04:15:26.925Z,18.75
2018-06-16T04:17:55.080Z,19.87
2018-06-16T04:20:23.252Z,19.40
2018-06-16T04:22:51.408Z,19.10
2018-06-16T04:25:19.562Z,18.45
2018-06-16T04:27:47.725Z,18.57
2018-06-16T04:30:15.867Z,19.50
2018-06-16T04:32:44.054Z,18.57
2018-06-16T04:35:12.214Z,16.37
2018-06-16T04:37:40.393Z,17.62
2018-06-16T04:40:08.557Z,16.62
2018-06-16T04:42:36.726Z,16.60
2018-06-16T04:45:05.113Z,16.93
2018-06-16T04:47:33.324Z,15.68
2018-06-16T04:50:01.492Z,15.72
2018-06-16T04:52:29.654Z,16.87
2018-06-16T04:54:57.809Z,16.10
2018-06-16T04:57:25.990Z,16.45
2018-06-16T04:59:54.145Z,15.75
2018-06-16T05:02:22.341Z,14.73
2018-06-16T05:04:50.553Z,15.05
2018-06-16T05:07:18.721Z,16.12
2018-06-16T05:09:46.874Z,14.50
2018-06-16T05:12:15.034Z,14.80
2018-06-16T05:14:43.201Z,14.28
2018-06-16T05:17:11.501Z,15.60
2018-06-16T05:19:39.663Z,15.80
2018-06-16T05:22:07.831Z,14.25
2018-06-16T05:24:36.006Z,14.70
2018-06-16T05:27:04.158Z,13.40
2018-06-16T05:29:32.318Z,13.70
2018-06-16T05:32:00.597Z,12.85
2018-06-16T05:34:28.763Z,12.95
2018-06-16T05:36:56.922Z,13.22
2018-06-16T05:39:25.080Z,13.22
2018-06-16T05:41:53.240Z,12.82
2018-06-16T05:44:21.421Z,12.47
2018-06-16T05:46:49.586Z,12.07
2018-06-16T05:49:17.807Z,11.55
2018-06-16T05:51:45.958Z,11.28
2018-06-16T05:54:14.124Z,11.43
2018-06-16T05:56:42.305Z,11.55
2018-06-16T05:59:10.535Z,11.60
2018-06-16T06:01:38.701Z,12.15
2018-06-16T06:04:06.890Z,11.50
2018-06-16T06:06:35.091Z,11.05
2018-06-16T06:09:03.427Z,11.03
2018-06-16T06:11:31.610Z,11.55
2018-06-16T06:13:59.813Z,10.63
2018-06-16T06:16:27.996Z,11.60
2018-06-16T06:18:56.161Z,10.45
2018-06-16T06:21:24.324Z,11.05
2018-06-16T06:23:52.480Z,11.75
2018-06-16T06:26:20.670Z,10.28
2018-06-16T06:28:48.853Z,10.40
2018-06-16T06:31:17.043Z,11.03
2018-06-16T06:33:45.221Z,10.70
2018-06-16T06:36:13.389Z,11.48
2018-06-16T06:38:41.571Z,10.75
2018-06-16T06:41:09.737Z,10.80
2018-06-16T06:43:37.890Z,10.05
2018-06-16T06:46:06.085Z,9.48
2018-06-16T06:48:34.250Z,9.05
2018-06-16T06:51:02.403Z,9.23
2018-06-16T06:53:30.593Z,8.25
2018-06-16T06:55:58.754Z,8.38
2018-06-16T06:58:26.941Z,7.87
2018-06-16T07:00:55.105Z,8.20
2018-06-16T07:03:23.326Z,7.75
2018-06-16T07:05:51.491Z,8.18
2018-06-16T07:08:19.666Z,7.28
2018-06-16T07:10:47.944Z,6.78
2018-06-16T07:13:16.110Z,7.30
2018-06-16T07:15:44.261Z,7.08
2018-06-16T07:18:12.415Z,8.88
2018-06-16T07:20:40.561Z,10.85
2018-06-16T07:23:08.976Z,7.30
2018-06-16T07:25:37.145Z,7.92
2018-06-16T07:28:05.446Z,7.92
2018-06-16T07:30:33.601Z,7.75
2018-06-16T07:33:01.858Z,7.37
2018-06-16T07:35:30.014Z,7.75
2018-06-16T07:37:58.272Z,7.72
2018-06-16T07:40:26.426Z,7.12
2018-06-16T07:42:54.596Z,7.25
2018-06-16T07:45:22.549Z,6.45
2018-06-16T07:47:50.705Z,7.62
2018-06-16T07:50:18.875Z,6.80
2018-06-16T07:52:47.046Z,8.10
2018-06-16T07:55:15.246Z,7.05
2018-06-16T07:57:43.473Z,7.45
2018-06-16T08:00:11.629Z,6.83
2018-06-16T08:02:39.782Z,7.22
2018-06-16T08:05:08.451Z,7.65
2018-06-16T08:07:36.592Z,8.05
2018-06-16T08:10:04.785Z,7.75
2018-06-16T08:12:32.947Z,6.97
2018-06-16T08:15:01.344Z,7.17
2018-06-16T08:17:29.507Z,8.30
2018-06-16T08:19:57.666Z,8.20
2018-06-16T08:22:25.874Z,8.43
2018-06-16T08:24:54.558Z,8.03
2018-06-16T08:27:22.714Z,8.00
2018-06-16T08:29:50.879Z,8.48
2018-06-16T08:32:19.385Z,7.95
2018-06-16T08:34:47.616Z,7.55
2018-06-16T08:37:15.727Z,6.95
2018-06-16T08:39:43.893Z,7.10
2018-06-16T08:42:12.029Z,7.30
2018-06-16T08:44:40.204Z,6.67
2018-06-16T08:47:08.396Z,7.30
2018-06-16T08:49:36.564Z,5.58
2018-06-16T08:52:04.744Z,6.75
2018-06-16T08:54:32.919Z,6.87
2018-06-16T08:57:01.082Z,7.08
2018-06-16T08:59:29.230Z,6.42
2018-06-16T09:01:57.578Z,6.95
2018-06-16T09:04:25.737Z,6.10
2018-06-16T09:06:53.956Z,5.15
2018-06-16T09:09:22.386Z,5.50
2018-06-16T09:11:50.542Z,5.97
2018-06-16T09:14:18.689Z,6.40
2018-06-16T09:16:46.873Z,6.15
2018-06-16T09:19:15.034Z,6.42
2018-06-16T09:21:43.181Z,7.33
2018-06-16T09:24:11.373Z,7.80
2018-06-16T09:26:39.818Z,7.50
2018-06-16T09:29:08.006Z,7.70
2018-06-16T09:31:36.164Z,6.47
2018-06-16T09:34:04.313Z,21.80
2018-06-16T09:36:32.473Z,9.90
2018-06-16T09:39:00.631Z,8.88
2018-06-16T09:41:28.796Z,7.58
2018-06-16T09:43:56.942Z,7.33
2018-06-16T09:46:25.105Z,7.70
2018-06-16T09:48:53.290Z,7.67
2018-06-16T09:51:21.454Z,6.65
2018-06-16T09:53:49.664Z,6.55
2018-06-16T09:56:17.812Z,7.28
2018-06-16T09:58:45.970Z,7.00
2018-06-16T10:01:14.129Z,6.65
2018-06-16T10:03:42.282Z,6.35
2018-06-16T10:06:10.596Z,7.15
2018-06-16T10:08:38.532Z,6.28
2018-06-16T10:11:06.988Z,7.15
2018-06-16T10:13:35.160Z,7.22
2018-06-16T10:16:03.392Z,7.10
2018-06-16T10:18:31.484Z,6.40
2018-06-16T10:20:59.629Z,5.33
2018-06-16T10:23:27.804Z,5.53
2018-06-16T10:25:55.959Z,6.90
2018-06-16T10:28:24.217Z,6.97
2018-06-16T10:30:52.366Z,6.45
2018-06-16T10:33:20.555Z,6.45
2018-06-16T10:35:48.725Z,6.55
2018-06-16T10:38:16.959Z,6.97
2018-06-16T10:40:45.141Z,6.12
2018-06-16T10:43:13.081Z,5.92
2018-06-16T10:45:41.257Z,6.15
2018-06-16T10:48:09.417Z,6.12
2018-06-16T10:50:37.679Z,6.42
2018-06-16T10:53:05.894Z,6.00
2018-06-16T10:55:33.810Z,6.20
2018-06-16T10:58:01.981Z,5.75
2018-06-16T11:00:30.226Z,5.30
2018-06-16T11:02:58.361Z,5.10
2018-06-16T11:05:26.601Z,4.85
2018-06-16T11:07:54.754Z,4.08
2018-06-16T11:10:23.769Z,5.22
2018-06-16T11:12:51.936Z,4.67
2018-06-16T11:15:20.125Z,5.00
2018-06-16T11:17:48.270Z,4.95
2018-06-16T11:20:16.452Z,4.22
2018-06-16T11:22:44.605Z,4.65
2018-06-16T11:25:12.555Z,4.47
2018-06-16T11:27:40.720Z,4.85
2018-06-16T11:30:08.895Z,4.70
2018-06-16T11:32:37.094Z,3.92
2018-06-16T11:35:05.293Z,4.15
2018-06-16T11:37:33.437Z,4.40
2018-06-16T11:40:01.597Z,4.53
2018-06-16T11:42:29.751Z,3.80
2018-06-16T11:44:57.945Z,3.60
2018-06-16T11:47:26.090Z,3.80
2018-06-16T11:49:54.269Z,3.75
2018-06-16T11:52:22.425Z,3.70
2018-06-16T11:54:50.573Z,3.50
2018-06-16T11:57:18.752Z,3.35
2018-06-16T11:59:46.895Z,3.33
2018-06-16T12:02:15.050Z,3.65
2018-06-16T12:04:43.205Z,3.35
2018-06-16T12:07:11.378Z,3.75
2018-06-16T12:09:39.519Z,3.92
2018-06-16T12:12:07.690Z,3.75
2018-06-16T12:14:35.866Z,4.12
2018-06-16T12:17:04.150Z,3.60
2018-06-16T12:19:32.383Z,3.83
2018-06-16T12:22:00.605Z,3.90
2018-06-16T12:24:28.460Z,4.22
2018-06-16T12:26:56.618Z,3.72
2018-06-16T12:29:24.757Z,4.10
2018-06-16T12:31:52.905Z,4.00
2018-06-16T12:34:21.074Z,4.45
2018-06-16T12:36:49.240Z,3.98
2018-06-16T12:39:17.409Z,4.33
2018-06-16T12:41:45.596Z,4.40
2018-06-16T12:44:13.753Z,3.70
2018-06-16T12:46:41.983Z,4.20
2018-06-16T12:49:10.129Z,4.25
2018-06-16T12:51:38.338Z,3.83
2018-06-16T12:54:06.305Z,3.90
2018-06-16T12:56:34.241Z,4.20
2018-06-16T12:59:02.388Z,3.87
2018-06-16T13:01:30.553Z,3.92
2018-06-16T13:03:58.690Z,3.55
2018-06-16T13:06:26.841Z,4.47
2018-06-16T13:08:55.030Z,3.60
2018-06-16T13:11:23.172Z,4.30
2018-06-16T13:13:51.334Z,3.20
2018-06-16T13:16:19.490Z,3.58
2018-06-16T13:18:47.641Z,3.77
2018-06-16T13:21:15.786Z,3.40
2018-06-16T13:23:43.941Z,3.47
2018-06-16T13:26:12.081Z,3.60
2018-06-16T13:28:40.233Z,3.85
2018-06-16T13:31:08.412Z,3.67
2018-06-16T13:33:36.567Z,3.67
2018-06-16T13:36:04.494Z,3.60
2018-06-16T13:38:32.645Z,4.28
2018-06-16T13:41:00.816Z,3.90
2018-06-16T13:43:28.987Z,3.72
2018-06-16T13:45:57.162Z,3.47
2018-06-16T13:48:25.344Z,3.50
2018-06-16T13:50:53.542Z,3.33
2018-06-16T13:53:21.684Z,3.50
2018-06-16T13:55:49.853Z,3.15
2018-06-16T13:58:18.014Z,3.40
2018-06-16T14:00:46.184Z,3.58
2018-06-16T14:03:14.347Z,3.42
2018-06-16T14:05:42.268Z,3.75
2018-06-16T14:08:10.447Z,3.33
2018-06-16T14:10:38.744Z,3.12
2018-06-16T14:13:07.125Z,3.25
2018-06-16T14:15:35.413Z,3.45
2018-06-16T14:18:03.562Z,3.47
2018-06-16T14:20:31.725Z,3.40
2018-06-16T14:22:59.883Z,3.20
2018-06-16T14:25:28.050Z,4.25
2018-06-16T14:27:56.235Z,3.67
2018-06-16T14:30:24.393Z,4.10
2018-06-16T14:32:52.560Z,3.72
2018-06-16T14:35:20.728Z,3.60
2018-06-16T14:37:48.903Z,3.62
2018-06-16T14:40:17.076Z,3.80
2018-06-16T14:42:45.244Z,3.25
2018-06-16T14:45:13.448Z,3.08
2018-06-16T14:47:41.577Z,3.62
2018-06-16T14:50:09.756Z,3.62
2018-06-16T14:52:37.954Z,3.50
2018-06-16T14:55:06.137Z,3.58
2018-06-16T14:57:34.313Z,3.67
2018-06-16T15:00:02.608Z,3.65
2018-06-16T15:02:30.764Z,3.55
2018-06-16T15:04:58.959Z,3.80
2018-06-16T15:07:27.082Z,4.42
2018-06-16T15:09:55.243Z,3.47
2018-06-16T15:12:23.414Z,3.70
2018-06-16T15:14:51.578Z,3.15
2018-06-16T15:17:19.737Z,3.62
2018-06-16T15:19:47.897Z,3.52
2018-06-16T15:22:16.050Z,3.47
2018-06-16T15:24:44.281Z,3.00
2018-06-16T15:27:12.457Z,2.90
2018-06-16T15:29:40.611Z,3.25
2018-06-16T15:32:08.761Z,3.10
2018-06-16T15:34:36.917Z,2.87
2018-06-16T15:37:05.074Z,2.80
2018-06-16T15:39:33.212Z,2.62
2018-06-16T15:42:01.357Z,3.02
2018-06-16T15:44:29.538Z,3.05
2018-06-16T15:46:57.798Z,3.12
2018-06-16T15:49:25.957Z,3.27
2018-06-16T15:51:54.121Z,2.90
2018-06-16T15:54:22.337Z,2.70
2018-06-16T15:56:50.642Z,2.77
2018-06-16T15:59:18.566Z,2.58
2018-06-16T16:01:46.773Z,2.77
2018-06-16T16:04:15.262Z,2.80
2018-06-16T16:06:43.438Z,2.70
2018-06-16T16:09:11.598Z,2.95
2018-06-16T16:11:39.764Z,2.95
2018-06-16T16:14:07.921Z,2.72
2018-06-16T16:16:36.464Z,2.55
2018-06-16T16:19:04.625Z,2.83
2018-06-16T16:21:32.541Z,2.85
2018-06-16T16:24:00.733Z,3.20
2018-06-16T16:26:28.894Z,3.20
2018-06-16T16:28:57.041Z,3.42
2018-06-16T16:31:25.219Z,3.12
2018-06-16T16:33:53.493Z,3.20
2018-06-16T16:36:21.718Z,3.08
2018-06-16T16:38:49.905Z,2.77
2018-06-16T16:41:18.152Z,3.05
2018-06-16T16:43:46.376Z,3.40
2018-06-16T16:46:14.574Z,2.98
2018-06-16T16:48:42.825Z,3.27
2018-06-16T16:51:11.009Z,3.37
2018-06-16T16:53:39.267Z,3.27
2018-06-16T16:56:07.445Z,3.65
2018-06-16T16:58:35.631Z,3.30
2018-06-16T17:01:03.910Z,3.67
2018-06-16T17:03:32.080Z,3.35
2018-06-16T17:06:00.265Z,3.37
2018-06-16T17:08:28.541Z,3.40
2018-06-16T17:10:56.713Z,3.65
2018-06-16T17:13:24.946Z,4.28
2018-06-16T17:15:53.202Z,4.70
2018-06-16T17:18:21.379Z,4.20
2018-06-16T17:20:49.544Z,3.83
2018-06-16T17:23:17.697Z,4.03
2018-06-16T17:25:45.858Z,3.52
2018-06-16T17:28:14.062Z,3.75
2018-06-16T17:30:42.225Z,3.72
2018-06-16T17:33:10.410Z,3.80
2018-06-16T17:35:38.576Z,4.08
2018-06-16T17:38:06.866Z,3.80
2018-06-16T17:40:35.029Z,3.75
2018-06-16T17:43:03.224Z,3.92
2018-06-16T17:45:31.386Z,3.60
2018-06-16T17:47:59.567Z,4.40
2018-06-16T17:50:27.764Z,3.87
2018-06-16T17:52:55.977Z,4.00
2018-06-16T17:55:24.146Z,3.95
2018-06-16T17:57:52.449Z,4.20
2018-06-16T18:00:20.626Z,4.00
2018-06-16T18:02:48.814Z,4.58
2018-06-16T18:05:16.970Z,4.78
2018-06-16T18:07:45.181Z,4.08
2018-06-16T18:10:13.354Z,3.98
2018-06-16T18:12:41.524Z,5.05
2018-06-16T18:15:09.693Z,5.03
2018-06-16T18:17:37.902Z,5.10
2018-06-16T18:20:06.065Z,4.75
2018-06-16T18:22:34.321Z,4.90
2018-06-16T18:25:02.497Z,4.45
2018-06-16T18:27:30.412Z,4.80
2018-06-16T18:29:58.686Z,4.30
2018-06-16T18:32:26.842Z,4.97
2018-06-16T18:34:55.073Z,5.15
2018-06-16T18:37:23.221Z,5.08
2018-06-16T18:39:51.398Z,5.50
2018-06-16T18:42:19.595Z,5.90
2018-06-16T18:44:47.762Z,4.65
2018-06-16T18:47:15.918Z,5.58
2018-06-16T18:49:44.128Z,5.92
2018-06-16T18:52:12.252Z,5.53
2018-06-16T18:54:40.406Z,6.05
2018-06-16T18:57:08.590Z,4.90
2018-06-16T18:59:36.779Z,5.42
2018-06-16T19:02:04.950Z,5.35
2018-06-16T19:04:33.129Z,5.80
2018-06-16T19:07:01.293Z,6.53
2018-06-16T19:09:29.461Z,5.97
2018-06-16T19:11:57.641Z,5.50
2018-06-16T19:14:25.810Z,5.58
2018-06-16T19:16:53.964Z,5.97
2018-06-16T19:19:22.125Z,6.72
2018-06-16T19:21:50.282Z,7.05
2018-06-16T19:24:18.475Z,6.45
2018-06-16T19:26:46.629Z,6.60
2018-06-16T19:29:14.781Z,6.75
2018-06-16T19:31:42.921Z,6.28
2018-06-16T19:34:11.106Z,6.75
2018-06-16T19:36:39.253Z,6.72
2018-06-16T19:39:09.229Z,5.53
2018-06-16T19:41:37.506Z,4.60
2018-06-16T19:44:05.736Z,5.47
2018-06-16T19:46:33.904Z,5.25
2018-06-16T19:49:02.063Z,4.83
2018-06-16T19:51:30.219Z,5.20
2018-06-16T19:53:58.370Z,5.50
2018-06-16T19:56:26.544Z,5.42
2018-06-16T19:58:54.704Z,5.37
2018-06-16T20:01:22.869Z,5.30
2018-06-16T20:03:51.141Z,5.17
2018-06-16T20:06:19.368Z,5.55
2018-06-16T20:08:47.523Z,5.20
2018-06-16T20:11:15.681Z,5.37
2018-06-16T20:13:43.849Z,6.25
2018-06-16T20:16:12.007Z,5.70
2018-06-16T20:18:40.177Z,5.50
2018-06-16T20:21:08.338Z,5.08
2018-06-16T20:23:36.504Z,6.03
2018-06-16T20:26:04.676Z,5.22
2018-06-16T20:28:32.842Z,5.50
2018-06-16T20:31:01.006Z,5.45
2018-06-16T20:33:29.221Z,5.42
2018-06-16T20:35:57.385Z,5.75
2018-06-16T20:38:25.544Z,5.62
2018-06-16T20:40:53.714Z,5.85
2018-06-16T20:43:21.874Z,5.53
2018-06-16T20:45:50.056Z,6.10
2018-06-16T20:48:18.210Z,6.17
2018-06-16T20:50:46.363Z,5.67
2018-06-16T20:53:14.515Z,6.50
2018-06-16T20:55:42.666Z,6.08
2018-06-16T20:58:10.823Z,5.37
2018-06-16T21:00:38.965Z,6.58
2018-06-16T21:03:07.136Z,5.83
2018-06-16T21:05:35.282Z,6.15
2018-06-16T21:08:03.442Z,5.87
2018-06-16T21:10:31.634Z,5.67
2018-06-16T21:12:59.799Z,6.15
2018-06-16T21:15:27.946Z,6.40
2018-06-16T21:17:56.104Z,5.80
2018-06-16T21:20:24.293Z,5.95
2018-06-16T21:22:52.472Z,6.70
2018-06-16T21:25:20.646Z,6.72
2018-06-16T21:27:48.804Z,6.30
2018-06-16T21:30:16.954Z,6.87
2018-06-16T21:32:45.118Z,6.42
2018-06-16T21:35:13.325Z,6.92
2018-06-16T21:37:41.514Z,7.15
2018-06-16T21:40:09.677Z,7.12
2018-06-16T21:42:37.830Z,7.50
2018-06-16T21:45:06.189Z,6.67
2018-06-16T21:47:34.353Z,7.45
2018-06-16T21:50:02.528Z,7.40
2018-06-16T21:52:30.673Z,7.40
2018-06-16T21:54:58.838Z,7.87
2018-06-16T21:57:26.982Z,8.70
2018-06-16T21:59:55.124Z,8.13
2018-06-16T22:02:23.283Z,7.97
2018-06-16T22:04:51.433Z,9.30
2018-06-16T22:07:19.582Z,7.92
2018-06-16T22:09:47.741Z,8.15
2018-06-16T22:12:15.890Z,8.60
2018-06-16T22:14:44.059Z,7.70
2018-06-16T22:17:12.213Z,7.92
2018-06-16T22:19:40.379Z,8.70
2018-06-16T22:22:08.537Z,8.08
2018-06-16T22:24:36.695Z,8.45
2018-06-16T22:27:04.873Z,8.78
2018-06-16T22:29:33.070Z,9.30
2018-06-16T22:32:01.225Z,8.98
2018-06-16T22:34:29.392Z,9.70
2018-06-16T22:36:57.546Z,8.85
2018-06-16T22:39:25.748Z,9.48
2018-06-16T22:41:53.882Z,9.53
2018-06-16T22:44:21.825Z,9.10
2018-06-16T22:46:50.008Z,9.23
2018-06-16T22:49:18.142Z,8.38
2018-06-16T22:51:46.302Z,8.90
2018-06-16T22:54:14.449Z,8.95
2018-06-16T22:56:42.603Z,9.38
2018-06-16T22:59:10.749Z,8.95
2018-06-16T23:01:38.896Z,9.43
2018-06-16T23:04:07.130Z,9.73
2018-06-16T23:06:35.285Z,10.13
2018-06-16T23:09:03.557Z,10.40
2018-06-16T23:11:31.750Z,10.18
2018-06-16T23:13:59.902Z,10.93
2018-06-16T23:16:28.065Z,10.63
2018-06-16T23:18:56.216Z,10.80
2018-06-16T23:21:24.383Z,10.53
2018-06-16T23:23:52.530Z,10.58
2018-06-16T23:26:20.714Z,10.23
2018-06-16T23:28:48.627Z,10.48
2018-06-16T23:31:16.792Z,10.43
2018-06-16T23:33:44.929Z,10.55
2018-06-16T23:36:13.102Z,10.72
2018-06-16T23:38:41.265Z,10.95
2018-06-16T23:41:09.445Z,11.10
2018-06-16T23:43:37.601Z,11.00
2018-06-16T23:46:05.853Z,11.43
2018-06-16T23:48:34.000Z,11.65
2018-06-16T23:51:02.186Z,11.68
2018-06-16T23:53:30.349Z,10.63
2018-06-16T23:55:58.513Z,12.13
2018-06-16T23:58:26.742Z,12.28
